Mc Nary, Texas
Current Conditions -  °F | °C
As of 8:48 PM on Sunday 25 Jan 2015 (Local Time) from MMCS Reporting Station
Broken Clouds Broken Clouds  
Wind Chill: 46°   Ceiling: 25000
Heat Index: 46°   Visibility: 10mi
Dew Point: 30°   Wind: 0mph
Humidity: 53%   Direction: NA
Pressure: 30.22"   Gusts: NA
Location:  31.5192°N, 105.683°W
Report Text: MMCS 260348Z 00000KT 10SM FEW160 BKN250 08/M01 A3022 RMK 8/028
Loading
Personal Weather Stations






























Interactive Weather Map New forecast layout! Learn more

10-Day Weather Forecast

Advertisements
Track Severe Weather on mobile